Portada
METAR-TAF:

METAR-TAF

Aeroports :

Phrae, Tailàndia

latitud: 18-10N, longitud: 100-10E, altitud: 161 m

Observació

L'informe es va fer fa 4 hores i 14 minuts, a les 11:00 UTC
Vent 9 kt del Sud/Sud-Oest
Temperatura 32°C
Humitat 63%
Pressió 1003 hPa
Visibilitat 10 km o més
Escasses núvols a una alçada de 3000 ft

METAR: VTCP 241100Z 20009KT 9999 FEW030 32/24 Q1003 NOSIG

Hora: 22:14 (15:14 UTC)

Pronòstic

L'informe es va fer fa 4 hores i 14 minuts, a les 11:00 UTC
Pronòstic vàlid del 24 a les 12 UTC al 25 a les 12 UTC
Vent 5 kt del Sud/Sud-Oest
Visibilitat 10 km o més
Núvols disperses a una alçada de 3000 ft

TAF: VTCP 241100Z 2412/2512 20005KT 9999 SCT030

Observacions i pronòstics meteorològics de més de 4000 aeroports (METAR i TAF).

Les estacions disponibles són els punts grocs i vermells al mapa.

Posi el ratolí al punt desitjat per veure el nom de l'estació.

Feu clic per veure les observacions i els pronòstics meteorològics.

Per canviar el mapa: feu clic els botons verds amb una creu de color negre per apropar; al botó verd amb un guió per allunyar la imatge; o en les fletxes verdes per a mapes adjacents.


METAR-TAF: